createdAt,value
2022-09-28T05:40:12.556Z,8.3
2022-09-28T05:41:25.224Z,8.3
2022-09-28T05:42:38.193Z,8.3
2022-09-28T05:43:51.345Z,8.3
2022-09-28T05:45:04.354Z,8.3
2022-09-28T05:46:17.578Z,8.3
2022-09-28T05:47:30.523Z,8.3
2022-09-28T05:48:43.495Z,8.3
2022-09-28T05:49:56.509Z,8.3
2022-09-28T05:51:09.365Z,8.4
2022-09-28T05:52:22.409Z,8.4
2022-09-28T05:53:35.337Z,8.4
2022-09-28T05:54:48.510Z,8.4
2022-09-28T05:56:01.375Z,8.4
2022-09-28T05:57:14.356Z,8.4
2022-09-28T05:58:27.511Z,8.4
2022-09-28T05:59:41.254Z,8.4
2022-09-28T06:00:53.444Z,8.4
2022-09-28T06:02:06.570Z,8.4
2022-09-28T06:03:18.974Z,8.4
2022-09-28T06:04:32.118Z,8.4
2022-09-28T06:05:45.409Z,8.5
2022-09-28T06:06:58.661Z,8.6
2022-09-28T06:09:25.972Z,8.6
2022-09-28T06:10:37.081Z,8.6
2022-09-28T06:11:50.231Z,8.6
2022-09-28T06:13:03.097Z,8.6
2022-09-28T06:14:16.278Z,8.6
2022-09-28T06:15:29.261Z,8.6
2022-09-28T06:16:43.903Z,8.7
2022-09-28T06:17:55.217Z,8.7
2022-09-28T06:19:08.281Z,8.7
2022-09-28T06:20:21.103Z,8.7
2022-09-28T06:21:34.235Z,8.7
2022-09-28T06:22:47.201Z,8.7
2022-09-28T06:24:00.733Z,8.7
2022-09-28T06:25:13.339Z,8.7
2022-09-28T06:26:26.220Z,8.7
2022-09-28T06:27:39.229Z,8.7
2022-09-28T06:28:52.231Z,8.7
2022-09-28T06:30:05.362Z,8.7
2022-09-28T06:31:18.447Z,8.7
2022-09-28T06:32:31.224Z,8.7
2022-09-28T06:33:44.114Z,8.7
2022-09-28T06:34:57.236Z,8.7
2022-09-28T06:36:10.269Z,8.7
2022-09-28T06:37:23.259Z,8.7
2022-09-28T06:38:36.243Z,8.7
2022-09-28T06:39:49.427Z,8.8
2022-09-28T06:41:02.414Z,8.8
2022-09-28T06:43:32.211Z,8.8
2022-09-28T07:20:00.889Z,8.9
2022-09-28T08:18:22.153Z,10.2
2022-09-28T08:19:35.155Z,10.3
2022-09-28T08:20:51.517Z,10.3
2022-09-28T08:22:01.291Z,10.3
2022-09-28T08:23:14.263Z,10.3
2022-09-28T08:24:27.476Z,10.3
2022-09-28T08:25:40.149Z,10.3
2022-09-28T08:26:53.411Z,10.4
2022-09-28T08:28:06.295Z,10.4
2022-09-28T08:29:19.193Z,10.4
2022-09-28T08:30:32.209Z,10.4
2022-09-28T08:31:45.134Z,10.4
2022-09-28T10:07:52.157Z,11.2
2022-09-28T10:09:05.257Z,11.3
2022-09-28T10:10:18.319Z,11.3
2022-09-28T10:11:31.273Z,11.3
2022-09-28T10:12:44.159Z,11.3
2022-09-28T10:13:57.279Z,11.3
2022-09-28T10:15:10.310Z,11.3
2022-09-28T10:16:23.422Z,11.4
2022-09-28T10:17:36.248Z,11.5
2022-09-28T10:18:49.173Z,11.5
2022-09-28T21:31:38.245Z,7.1
2022-09-28T21:32:51.766Z,7.1
2022-09-28T21:35:17.384Z,7.1
2022-09-28T21:36:30.301Z,7.1
2022-09-28T21:37:43.106Z,7.1
2022-09-28T21:40:09.231Z,7.1
2022-09-28T21:41:22.129Z,7.1
